Time;durP1;ratioP1;P1;durP2;ratioP2;P2;SDS_P1;SDS_P2;PMS_P1;PMS_P2;Temp;Humidity;BMP_temperature;BMP_pressure;BME280_temperature;BME280_humidity;BME280_pressure;Samples;Min_cycle;Max_cycle;Signal;HPM_P1;HPM_P2
2023/05/01 00:01:51;;;;;;;9.30;5.53;;;10.40;99.90;;;;;;4964577;28;20409;-75
2023/05/01 00:04:17;;;;;;;6.75;5.40;;;10.40;99.90;;;;;;4974840;28;20427;-74
2023/05/01 00:06:43;;;;;;;7.22;5.38;;;10.40;99.90;;;;;;4962894;28;20772;-74
2023/05/01 00:09:12;;;;;;;8.50;5.30;;;10.40;99.90;;;;;;4962823;28;20419;-74
2023/05/01 00:11:38;;;;;;;8.20;5.22;;;10.40;99.90;;;;;;4963453;28;20428;-74
2023/05/01 00:14:04;;;;;;;7.68;5.28;;;10.40;99.90;;;;;;4994418;28;20482;-74
2023/05/01 00:16:31;;;;;;;7.60;5.40;;;10.40;99.90;;;;;;4962987;28;20415;-74
2023/05/01 00:18:57;;;;;;;7.65;4.90;;;10.40;99.90;;;;;;5045965;28;20444;-74
2023/05/01 00:21:23;;;;;;;7.90;5.25;;;10.40;99.90;;;;;;4959157;28;20434;-74
2023/05/01 00:23:50;;;;;;;8.85;4.72;;;10.40;99.90;;;;;;4959428;28;20747;-74
2023/05/01 00:26:16;;;;;;;7.13;4.97;;;10.40;99.90;;;;;;4958755;28;20411;-74
2023/05/01 00:28:43;;;;;;;7.53;4.90;;;10.30;99.90;;;;;;4961792;28;20478;-74
2023/05/01 00:31:10;;;;;;;8.05;5.00;;;10.30;99.90;;;;;;4957882;28;20412;-74
2023/05/01 00:33:36;;;;;;;7.70;5.22;;;10.30;99.90;;;;;;4961851;28;20982;-74
2023/05/01 00:36:02;;;;;;;7.20;5.25;;;10.40;99.90;;;;;;4963379;28;20467;-74
2023/05/01 00:38:28;;;;;;;6.85;5.20;;;10.40;99.90;;;;;;5045938;28;20413;-74
2023/05/01 00:40:55;;;;;;;9.15;5.05;;;10.50;99.90;;;;;;4974604;28;21273;-74
2023/05/01 00:43:21;;;;;;;8.02;5.32;;;10.40;99.90;;;;;;4977475;28;20418;-74
2023/05/01 00:45:48;;;;;;;8.13;5.22;;;10.40;99.90;;;;;;4991627;28;20420;-74
2023/05/01 00:48:15;;;;;;;9.70;5.38;;;10.40;99.90;;;;;;5046329;28;20434;-74
2023/05/01 00:50:43;;;;;;;8.55;5.50;;;10.40;99.90;;;;;;4961304;28;20502;-74
2023/05/01 00:53:12;;;;;;;10.07;6.10;;;10.50;99.90;;;;;;4962422;28;20423;-74
2023/05/01 00:55:42;;;;;;;11.00;6.60;;;10.50;99.90;;;;;;4969045;28;20412;-74
2023/05/01 00:58:10;;;;;;;11.05;6.60;;;10.50;99.90;;;;;;4977812;28;20508;-74
2023/05/01 01:00:37;;;;;;;11.40;6.35;;;10.50;99.90;;;;;;4960340;28;20408;-74
2023/05/01 01:03:05;;;;;;;10.27;6.10;;;10.50;99.90;;;;;;4975676;28;20509;-74
2023/05/01 01:05:48;;;;;;;11.52;6.32;;;10.50;99.90;;;;;;4980834;28;20477;-74
2023/05/01 01:08:41;;;;;;;8.35;5.60;;;10.50;99.90;;;;;;4963343;28;20452;-74
2023/05/01 01:11:52;;;;;;;8.60;6.00;;;10.40;99.90;;;;;;4978483;28;20407;-74
2023/05/01 01:14:35;;;;;;;8.55;5.60;;;10.40;99.90;;;;;;4963280;28;20396;-74
2023/05/01 01:17:44;;;;;;;8.32;5.53;;;10.40;99.90;;;;;;4971920;28;20784;-74
2023/05/01 01:20:44;;;;;;;9.05;5.30;;;10.40;99.90;;;;;;4942776;28;20545;-75
2023/05/01 01:23:40;;;;;;;7.88;5.43;;;10.40;99.90;;;;;;4960388;28;20930;-74
2023/05/01 01:26:56;;;;;;;8.07;5.68;;;10.50;99.90;;;;;;4989482;28;20462;-74
2023/05/01 01:30:12;;;;;;;9.65;5.47;;;10.50;99.90;;;;;;4966356;28;20416;-74
2023/05/01 01:33:40;;;;;;;6.72;5.30;;;10.50;99.90;;;;;;4994771;28;20412;-74
2023/05/01 01:36:17;;;;;;;10.18;5.43;;;10.50;99.90;;;;;;4963017;28;20819;-74
2023/05/01 01:39:00;;;;;;;9.02;5.57;;;10.60;99.90;;;;;;4964318;28;20890;-74
2023/05/01 01:41:34;;;;;;;7.95;5.43;;;10.60;99.90;;;;;;4960547;28;20419;-74
2023/05/01 01:44:20;;;;;;;7.60;5.10;;;10.60;99.90;;;;;;4992230;28;20404;-74
2023/05/01 01:46:50;;;;;;;8.38;5.05;;;10.50;99.90;;;;;;4949859;28;20440;-74
2023/05/01 01:49:25;;;;;;;8.32;5.20;;;10.50;99.90;;;;;;5048014;28;20976;-74
2023/05/01 01:51:54;;;;;;;7.45;5.20;;;10.50;99.90;;;;;;4970589;28;20424;-74
2023/05/01 01:54:31;;;;;;;9.13;4.97;;;10.50;99.90;;;;;;4960708;28;20412;-74
2023/05/01 01:57:01;;;;;;;8.02;4.80;;;10.50;99.90;;;;;;4961058;28;20501;-74
2023/05/01 01:59:33;;;;;;;7.13;4.90;;;10.50;99.90;;;;;;4984895;28;20417;-74
2023/05/01 02:02:02;;;;;;;8.73;5.00;;;10.50;99.90;;;;;;4986081;28;20936;-74
2023/05/01 02:04:31;;;;;;;9.50;5.40;;;10.40;99.90;;;;;;4962973;28;20432;-74
2023/05/01 02:07:00;;;;;;;8.57;5.40;;;10.40;99.90;;;;;;4963658;28;20412;-74
2023/05/01 02:09:30;;;;;;;8.32;5.07;;;10.40;99.90;;;;;;4993764;28;20775;-74
2023/05/01 02:11:58;;;;;;;7.88;5.07;;;10.40;99.90;;;;;;4965049;28;20428;-74
2023/05/01 02:14:26;;;;;;;8.57;4.68;;;10.40;99.90;;;;;;4990200;28;20559;-74
2023/05/01 02:16:55;;;;;;;7.60;5.22;;;10.30;99.90;;;;;;4964831;28;21247;-74
2023/05/01 02:19:23;;;;;;;9.52;5.40;;;10.30;99.90;;;;;;4963660;28;20415;-74
2023/05/01 02:21:52;;;;;;;6.82;4.90;;;10.40;99.90;;;;;;4964394;28;20433;-74
2023/05/01 02:24:21;;;;;;;9.30;4.82;;;10.40;99.90;;;;;;4979029;28;20400;-74
2023/05/01 02:26:59;;;;;;;8.73;5.00;;;10.40;99.90;;;;;;4960603;28;20446;-74
2023/05/01 02:29:26;;;;;;;9.32;5.10;;;10.40;99.90;;;;;;4961082;28;20441;-74
2023/05/01 02:31:53;;;;;;;8.57;5.00;;;10.30;99.90;;;;;;4968690;28;20421;-74
2023/05/01 02:34:19;;;;;;;8.88;4.80;;;10.30;99.90;;;;;;4974510;28;20421;-74
2023/05/01 02:36:45;;;;;;;8.60;5.18;;;10.30;99.90;;;;;;4944250;28;20911;-74
2023/05/01 02:39:12;;;;;;;7.20;4.80;;;10.30;99.90;;;;;;4961550;28;20410;-75
2023/05/01 02:41:40;;;;;;;8.48;4.70;;;10.30;99.90;;;;;;4959163;28;20414;-74
2023/05/01 02:44:10;;;;;;;7.40;4.60;;;10.40;99.90;;;;;;4978311;28;20424;-74
2023/05/01 02:46:42;;;;;;;7.70;4.33;;;10.40;99.90;;;;;;4958274;28;20419;-74
2023/05/01 02:49:11;;;;;;;6.50;4.82;;;10.40;99.90;;;;;;4957498;28;20420;-74
2023/05/01 02:51:39;;;;;;;8.48;4.80;;;10.40;99.90;;;;;;4950659;28;20412;-74
2023/05/01 02:54:07;;;;;;;7.13;4.50;;;10.40;99.90;;;;;;4964291;28;20499;-75
2023/05/01 02:56:34;;;;;;;6.90;4.30;;;10.40;99.90;;;;;;4990055;28;20444;-74
2023/05/01 02:59:00;;;;;;;6.53;4.40;;;10.30;99.90;;;;;;4964799;28;20433;-74
2023/05/01 03:01:27;;;;;;;5.70;4.07;;;10.30;99.90;;;;;;4960097;28;20408;-74
2023/05/01 03:03:53;;;;;;;8.43;4.00;;;10.30;99.90;;;;;;4996130;28;20401;-74
2023/05/01 03:06:19;;;;;;;5.82;3.83;;;10.20;99.90;;;;;;5044011;28;20773;-74
2023/05/01 03:08:46;;;;;;;5.75;3.53;;;10.30;99.90;;;;;;4963741;28;20422;-74
2023/05/01 03:11:13;;;;;;;5.53;3.60;;;10.30;99.90;;;;;;4964287;28;20995;-74
2023/05/01 03:13:40;;;;;;;5.63;3.60;;;10.20;99.90;;;;;;4959669;28;20823;-74
2023/05/01 03:16:06;;;;;;;6.78;3.30;;;10.20;99.90;;;;;;4973607;28;20416;-74
2023/05/01 03:18:32;;;;;;;5.65;3.40;;;10.10;99.90;;;;;;4966693;28;20463;-74
2023/05/01 03:20:58;;;;;;;4.70;3.17;;;10.20;99.90;;;;;;4965032;28;20924;-74
2023/05/01 03:23:26;;;;;;;5.07;3.40;;;10.20;99.90;;;;;;4965314;28;20942;-74
2023/05/01 03:25:53;;;;;;;6.22;3.28;;;10.20;99.90;;;;;;4968243;28;20420;-74
2023/05/01 03:28:22;;;;;;;6.20;3.35;;;10.20;99.90;;;;;;4954986;28;20935;-74
2023/05/01 03:30:53;;;;;;;5.77;3.40;;;10.10;99.90;;;;;;4963846;28;20412;-74
2023/05/01 03:33:19;;;;;;;6.57;3.40;;;10.10;99.90;;;;;;4960282;28;20435;-74
2023/05/01 03:35:45;;;;;;;3.90;3.15;;;10.10;99.90;;;;;;4989365;28;20434;-74
2023/05/01 03:38:11;;;;;;;4.90;3.10;;;10.10;99.90;;;;;;4965844;28;20464;-74
2023/05/01 03:40:38;;;;;;;4.37;2.93;;;10.00;99.90;;;;;;4964133;28;20404;-74
2023/05/01 03:43:04;;;;;;;5.57;2.90;;;10.00;99.90;;;;;;4963869;28;20423;-74
2023/05/01 03:45:30;;;;;;;5.15;3.13;;;10.00;99.90;;;;;;4962740;28;20889;-74
2023/05/01 03:47:57;;;;;;;5.05;2.88;;;10.00;99.90;;;;;;4964116;28;20438;-74
2023/05/01 03:50:23;;;;;;;4.05;2.97;;;10.00;99.90;;;;;;4960861;28;20416;-74
2023/05/01 03:52:49;;;;;;;4.28;2.90;;;10.10;99.90;;;;;;4962684;28;20476;-74
2023/05/01 03:55:16;;;;;;;5.55;3.15;;;10.10;99.90;;;;;;4988563;28;20424;-74
2023/05/01 03:57:42;;;;;;;6.47;3.25;;;10.10;99.90;;;;;;4987420;28;20421;-74
2023/05/01 04:00:10;;;;;;;5.35;3.08;;;10.10;99.90;;;;;;4954019;28;20414;-74
2023/05/01 04:02:37;;;;;;;3.65;3.05;;;10.20;99.90;;;;;;4983145;28;20416;-74
2023/05/01 04:05:04;;;;;;;3.95;3.10;;;10.10;99.90;;;;;;4980074;28;20440;-74
2023/05/01 04:07:30;;;;;;;4.68;3.00;;;10.20;99.90;;;;;;4976968;28;20495;-74
2023/05/01 04:09:57;;;;;;;4.25;3.00;;;10.20;99.90;;;;;;4976443;28;20774;-74
2023/05/01 04:12:23;;;;;;;4.50;3.25;;;10.20;99.90;;;;;;4961930;28;20423;-74
2023/05/01 04:14:49;;;;;;;4.13;3.10;;;10.30;99.90;;;;;;4970176;28;20419;-74
2023/05/01 04:17:16;;;;;;;3.60;3.00;;;10.30;99.90;;;;;;4953075;28;21045;-74
2023/05/01 04:19:43;;;;;;;4.90;2.90;;;10.30;99.90;;;;;;4959369;28;20408;-74
2023/05/01 04:22:09;;;;;;;4.38;3.05;;;10.40;99.90;;;;;;4963947;28;20422;-74
2023/05/01 04:24:35;;;;;;;6.72;3.38;;;10.40;99.90;;;;;;4972845;28;20415;-75
2023/05/01 04:27:01;;;;;;;7.30;3.70;;;10.50;99.90;;;;;;4961343;28;20432;-74
2023/05/01 04:29:28;;;;;;;6.95;4.00;;;10.70;99.90;;;;;;4944005;28;20494;-74
2023/05/01 04:31:55;;;;;;;7.80;3.70;;;10.90;99.90;;;;;;4966131;28;20505;-74
2023/05/01 04:34:21;;;;;;;7.72;3.80;;;11.00;99.90;;;;;;4961017;28;20406;-74
2023/05/01 04:36:48;;;;;;;5.55;3.90;;;11.10;99.90;;;;;;4964642;28;20412;-74
2023/05/01 04:39:15;;;;;;;6.15;3.67;;;11.20;99.90;;;;;;4961262;28;20416;-74
2023/05/01 04:41:41;;;;;;;4.78;3.67;;;11.30;99.90;;;;;;4968829;28;20440;-74
2023/05/01 04:44:07;;;;;;;5.53;3.67;;;11.40;99.90;;;;;;4964041;28;21045;-74
2023/05/01 04:46:33;;;;;;;6.53;3.60;;;11.50;99.90;;;;;;4980104;28;20408;-74
2023/05/01 04:49:00;;;;;;;5.00;3.30;;;11.60;99.90;;;;;;4965813;28;20471;-74
2023/05/01 04:51:27;;;;;;;5.38;3.15;;;11.70;99.90;;;;;;4993933;28;20427;-74
2023/05/01 04:53:54;;;;;;;4.95;3.50;;;11.80;99.90;;;;;;4965974;28;20758;-74
2023/05/01 04:56:20;;;;;;;5.70;3.20;;;11.90;99.90;;;;;;4961654;28;20420;-74
2023/05/01 04:58:47;;;;;;;5.40;3.30;;;11.90;99.90;;;;;;4962383;28;20421;-74
2023/05/01 05:01:13;;;;;;;4.43;2.90;;;11.90;99.90;;;;;;4965500;28;20491;-74
2023/05/01 05:03:39;;;;;;;5.75;3.13;;;11.90;99.90;;;;;;4990874;28;20439;-74
2023/05/01 05:06:06;;;;;;;4.00;3.15;;;12.00;99.90;;;;;;4964161;28;20424;-74
2023/05/01 05:08:32;;;;;;;4.37;3.20;;;12.00;99.90;;;;;;4956627;28;20812;-74
2023/05/01 05:10:59;;;;;;;6.95;3.33;;;12.00;99.90;;;;;;4965530;28;20428;-74
2023/05/01 05:13:27;;;;;;;5.18;3.50;;;12.10;99.90;;;;;;4947845;28;20416;-74
2023/05/01 05:15:54;;;;;;;4.55;3.30;;;12.10;99.90;;;;;;4964470;28;20412;-74
2023/05/01 05:18:20;;;;;;;5.55;3.30;;;12.10;99.90;;;;;;4966069;28;21050;-74
2023/05/01 05:20:46;;;;;;;5.00;3.35;;;12.30;99.90;;;;;;4994413;28;20423;-74
2023/05/01 05:23:12;;;;;;;5.95;3.40;;;12.40;99.90;;;;;;4997130;28;20412;-74
2023/05/01 05:25:39;;;;;;;4.38;3.33;;;12.40;99.90;;;;;;4959441;28;20410;-74
2023/05/01 05:28:05;;;;;;;4.85;3.53;;;12.50;99.90;;;;;;4966472;28;20948;-74
2023/05/01 05:30:31;;;;;;;5.63;3.35;;;12.50;99.90;;;;;;4959777;28;20527;-74
2023/05/01 05:32:57;;;;;;;4.55;3.45;;;12.50;99.90;;;;;;4980343;28;20879;-74
2023/05/01 05:35:24;;;;;;;4.88;3.38;;;12.50;99.90;;;;;;4966762;28;20469;-74
2023/05/01 05:37:50;;;;;;;4.68;3.15;;;12.50;99.90;;;;;;4963355;28;20420;-74
2023/05/01 05:40:18;;;;;;;5.13;3.00;;;12.60;99.90;;;;;;4976443;28;20416;-75
2023/05/01 05:42:44;;;;;;;4.20;2.97;;;12.70;99.90;;;;;;4965442;28;20423;-74
2023/05/01 05:45:10;;;;;;;4.60;2.80;;;12.70;99.90;;;;;;4967900;28;20454;-74
2023/05/01 05:47:37;;;;;;;3.42;2.60;;;12.80;99.90;;;;;;4962975;28;20516;-74
2023/05/01 05:50:06;;;;;;;2.97;2.40;;;12.80;99.90;;;;;;4974095;28;20505;-74
2023/05/01 05:52:32;;;;;;;3.47;2.65;;;13.00;99.90;;;;;;4977902;28;20418;-74
2023/05/01 05:54:58;;;;;;;2.90;2.35;;;13.10;99.90;;;;;;4969406;28;20427;-74
2023/05/01 05:57:25;;;;;;;3.20;2.58;;;13.30;99.90;;;;;;4965091;28;20447;-74
2023/05/01 05:59:51;;;;;;;4.28;2.40;;;13.40;99.90;;;;;;4964943;28;20462;-74
2023/05/01 06:02:17;;;;;;;5.07;2.70;;;13.60;99.90;;;;;;4990254;28;20424;-74
2023/05/01 06:04:43;;;;;;;4.00;2.65;;;13.60;99.90;;;;;;4995426;28;20498;-74
2023/05/01 06:07:09;;;;;;;3.65;2.55;;;13.70;99.90;;;;;;4963642;28;20426;-74
2023/05/01 06:09:36;;;;;;;3.53;2.35;;;13.70;99.90;;;;;;4959543;28;20880;-74
2023/05/01 06:12:04;;;;;;;4.05;2.50;;;13.70;99.90;;;;;;4947673;28;20399;-74
2023/05/01 06:14:30;;;;;;;5.43;2.80;;;14.00;99.90;;;;;;4995631;28;20412;-74
2023/05/01 06:16:56;;;;;;;4.90;2.70;;;14.10;99.90;;;;;;4963636;28;20487;-74
2023/05/01 06:19:23;;;;;;;3.90;2.63;;;14.10;99.90;;;;;;4965707;28;20437;-74
2023/05/01 06:21:49;;;;;;;4.37;2.67;;;14.10;99.90;;;;;;4970349;28;20420;-74
2023/05/01 06:24:15;;;;;;;3.90;2.55;;;14.10;99.90;;;;;;5049490;28;20502;-74
2023/05/01 06:26:41;;;;;;;5.38;2.70;;;14.20;99.90;;;;;;4988427;28;20751;-74
2023/05/01 06:29:07;;;;;;;3.30;2.10;;;14.20;99.90;;;;;;4965042;28;20941;-75
2023/05/01 06:31:34;;;;;;;3.65;2.15;;;14.30;99.90;;;;;;4946270;28;20418;-74
2023/05/01 06:34:00;;;;;;;3.88;2.30;;;14.40;99.90;;;;;;4962558;28;20415;-75
2023/05/01 06:36:26;;;;;;;3.55;2.25;;;14.50;99.90;;;;;;4966288;28;20404;-74
2023/05/01 06:38:52;;;;;;;2.97;2.20;;;14.50;99.90;;;;;;4960315;28;20436;-74
2023/05/01 06:41:20;;;;;;;5.32;2.70;;;14.50;99.90;;;;;;4961637;28;20416;-75
2023/05/01 06:43:47;;;;;;;3.58;2.15;;;14.60;99.90;;;;;;4958416;28;20930;-74
2023/05/01 06:46:13;;;;;;;4.20;2.28;;;14.80;99.90;;;;;;4976131;28;20421;-74
2023/05/01 06:48:39;;;;;;;4.70;2.45;;;14.80;99.90;;;;;;4963247;28;20424;-75
2023/05/01 06:51:06;;;;;;;3.13;2.40;;;14.90;99.90;;;;;;4965865;28;20452;-74
2023/05/01 06:53:32;;;;;;;3.00;2.03;;;14.90;99.90;;;;;;4964271;28;20914;-74
2023/05/01 06:55:59;;;;;;;4.45;2.15;;;14.90;99.90;;;;;;4962164;28;20420;-74
2023/05/01 06:58:25;;;;;;;4.18;2.30;;;15.20;99.90;;;;;;4972340;28;20467;-74
2023/05/01 07:00:53;;;;;;;5.40;2.25;;;15.20;99.90;;;;;;4989358;28;20427;-74
2023/05/01 07:03:19;;;;;;;3.13;2.17;;;15.20;99.90;;;;;;4969131;28;20760;-74
2023/05/01 07:05:46;;;;;;;3.85;2.03;;;15.20;99.90;;;;;;4955952;28;20430;-74
2023/05/01 07:08:13;;;;;;;2.78;2.05;;;15.20;99.90;;;;;;4941851;28;20458;-74
2023/05/01 07:10:39;;;;;;;3.67;2.13;;;15.40;99.90;;;;;;4957074;28;20416;-75
2023/05/01 07:13:05;;;;;;;2.90;2.10;;;15.60;99.90;;;;;;4966423;28;20538;-74
2023/05/01 07:15:33;;;;;;;4.70;2.20;;;15.60;99.90;;;;;;4958237;28;20499;-74
2023/05/01 07:18:01;;;;;;;2.90;2.08;;;15.80;99.90;;;;;;4980998;28;20488;-74
2023/05/01 07:20:27;;;;;;;3.50;2.20;;;15.90;99.90;;;;;;4953575;28;20422;-75
2023/05/01 07:22:53;;;;;;;3.83;2.10;;;16.00;99.90;;;;;;5033009;28;20455;-74
2023/05/01 07:25:20;;;;;;;2.85;2.17;;;16.10;99.90;;;;;;5044014;28;20489;-74
2023/05/01 07:27:46;;;;;;;3.13;1.90;;;16.20;99.90;;;;;;4955598;28;20425;-74
2023/05/01 07:30:13;;;;;;;4.17;2.07;;;16.20;99.90;;;;;;4963879;28;20430;-74
2023/05/01 07:32:39;;;;;;;3.22;2.00;;;16.30;99.90;;;;;;4990578;28;20423;-74
2023/05/01 07:35:06;;;;;;;2.85;1.90;;;16.30;99.90;;;;;;4986452;28;20415;-74
2023/05/01 07:37:33;;;;;;;4.32;2.08;;;16.30;99.90;;;;;;4978734;28;20519;-74
2023/05/01 07:39:59;;;;;;;2.58;2.00;;;16.40;99.90;;;;;;4985473;28;20420;-74
2023/05/01 07:42:28;;;;;;;3.75;2.20;;;16.40;99.90;;;;;;4964770;28;20434;-74
2023/05/01 07:44:54;;;;;;;3.17;1.92;;;16.30;99.90;;;;;;4992151;28;20419;-74
2023/05/01 07:47:21;;;;;;;3.78;1.80;;;16.40;99.90;;;;;;4970951;28;20920;-74
2023/05/01 07:49:47;;;;;;;3.05;1.95;;;16.40;99.90;;;;;;5042553;28;20428;-74
2023/05/01 07:52:14;;;;;;;2.90;1.80;;;16.50;99.90;;;;;;4955799;28;20789;-74
2023/05/01 07:54:41;;;;;;;2.88;1.90;;;16.50;99.90;;;;;;4953986;28;20604;-74
2023/05/01 07:57:07;;;;;;;3.47;1.85;;;16.60;99.90;;;;;;4958939;28;20424;-74
2023/05/01 07:59:33;;;;;;;2.88;1.77;;;16.60;99.90;;;;;;4950755;28;20431;-75
2023/05/01 08:01:59;;;;;;;2.80;1.73;;;16.60;99.90;;;;;;4961210;28;20897;-74
2023/05/01 08:04:27;;;;;;;6.40;2.60;;;16.70;99.90;;;;;;4964412;28;21214;-75
2023/05/01 08:06:53;;;;;;;4.40;2.50;;;17.00;99.90;;;;;;4983028;28;20422;-75
2023/05/01 08:09:19;;;;;;;4.83;2.43;;;17.20;99.90;;;;;;4964858;28;21184;-74
2023/05/01 08:11:46;;;;;;;4.75;2.40;;;17.40;99.90;;;;;;5022407;28;20427;-75
2023/05/01 08:14:12;;;;;;;4.93;2.58;;;17.50;99.90;;;;;;4970029;28;20427;-74
2023/05/01 08:16:38;;;;;;;5.72;2.50;;;17.50;99.90;;;;;;4976643;28;20478;-75
2023/05/01 08:19:05;;;;;;;4.97;2.60;;;17.60;99.90;;;;;;5046767;28;21161;-74
2023/05/01 08:21:31;;;;;;;3.55;2.28;;;17.70;99.90;;;;;;4981445;28;21043;-74
2023/05/01 08:23:57;;;;;;;4.72;2.50;;;17.80;99.90;;;;;;4980327;28;20407;-74
2023/05/01 08:26:24;;;;;;;4.97;2.57;;;17.80;99.90;;;;;;4955104;28;20428;-74
2023/05/01 08:28:50;;;;;;;4.80;2.60;;;17.90;99.90;;;;;;4952272;28;20456;-74
2023/05/01 08:31:18;;;;;;;6.07;2.95;;;18.00;99.90;;;;;;4961780;28;21174;-75
2023/05/01 08:33:44;;;;;;;3.53;2.30;;;18.00;99.90;;;;;;4960175;28;20423;-74
2023/05/01 08:36:11;;;;;;;4.63;2.60;;;18.00;99.90;;;;;;4987919;28;20524;-74
2023/05/01 08:38:37;;;;;;;4.10;2.60;;;18.00;99.90;;;;;;4961460;28;20435;-75
2023/05/01 08:41:04;;;;;;;4.95;2.60;;;18.10;99.90;;;;;;5042138;28;20424;-75
2023/05/01 08:43:31;;;;;;;3.90;2.40;;;18.20;99.90;;;;;;4977842;28;20416;-74
2023/05/01 08:46:02;;;;;;;6.03;2.53;;;18.30;99.90;;;;;;4958713;28;20961;-74
2023/05/01 08:48:31;;;;;;;4.53;2.63;;;18.30;99.90;;;;;;4963916;28;20426;-75
2023/05/01 08:51:00;;;;;;;4.95;2.50;;;18.50;99.90;;;;;;4974075;28;20487;-75
2023/05/01 08:53:28;;;;;;;6.47;2.73;;;18.50;99.90;;;;;;4961561;28;20498;-75
2023/05/01 08:55:56;;;;;;;8.00;2.75;;;18.70;99.90;;;;;;4973637;28;20419;-74
2023/05/01 08:58:25;;;;;;;5.50;2.90;;;18.70;99.90;;;;;;4959986;28;20428;-75
2023/05/01 09:00:57;;;;;;;4.03;2.80;;;18.70;99.90;;;;;;5044895;28;20418;-74
2023/05/01 09:03:25;;;;;;;5.10;2.80;;;18.80;99.90;;;;;;4957123;28;20787;-74
2023/05/01 09:05:52;;;;;;;6.22;2.80;;;18.90;99.90;;;;;;4937328;28;20437;-75
2023/05/01 09:08:19;;;;;;;4.60;2.85;;;19.00;99.90;;;;;;4985066;28;20514;-74
2023/05/01 09:10:48;;;;;;;5.60;2.83;;;19.10;99.90;;;;;;4962345;28;20424;-75
2023/05/01 09:13:14;;;;;;;5.53;2.60;;;19.00;99.90;;;;;;4979599;28;20771;-74
2023/05/01 09:15:41;;;;;;;5.75;2.78;;;19.00;99.90;;;;;;4973136;28;20511;-75
2023/05/01 09:18:08;;;;;;;4.50;2.67;;;19.10;99.90;;;;;;4976445;28;20451;-74
2023/05/01 09:20:36;;;;;;;7.10;2.90;;;19.30;99.90;;;;;;4958675;28;20419;-74
2023/05/01 09:23:03;;;;;;;6.68;2.90;;;19.10;99.90;;;;;;4968038;28;20497;-75
2023/05/01 09:25:30;;;;;;;5.75;2.53;;;19.20;99.90;;;;;;4959242;28;20449;-74
2023/05/01 09:27:56;;;;;;;4.68;2.55;;;19.30;99.90;;;;;;4960558;28;20784;-75
2023/05/01 09:30:35;;;;;;;5.30;2.75;;;19.40;99.90;;;;;;4964486;28;20434;-75
2023/05/01 09:33:08;;;;;;;6.80;3.00;;;19.60;99.90;;;;;;4960318;28;20424;-75
2023/05/01 09:35:58;;;;;;;4.03;2.80;;;19.60;99.90;;;;;;4962491;28;20504;-75
2023/05/01 09:38:28;;;;;;;5.15;3.10;;;19.70;99.90;;;;;;4969420;28;20491;-74
2023/05/01 09:41:03;;;;;;;4.87;2.97;;;19.70;99.90;;;;;;4998535;28;20758;-74
2023/05/01 09:43:30;;;;;;;6.50;2.90;;;19.80;99.90;;;;;;4979685;28;20422;-75
2023/05/01 09:46:10;;;;;;;6.70;3.15;;;19.80;99.90;;;;;;4966241;28;20413;-75
2023/05/01 09:48:38;;;;;;;4.88;3.00;;;19.80;99.90;;;;;;4960416;28;20416;-74
2023/05/01 09:51:29;;;;;;;5.53;3.07;;;19.80;99.90;;;;;;4958000;28;20420;-74
2023/05/01 09:54:02;;;;;;;6.30;2.90;;;19.80;99.90;;;;;;4954143;28;20425;-74
2023/05/01 09:56:32;;;;;;;4.75;2.92;;;19.90;99.90;;;;;;4961116;28;20416;-75
2023/05/01 09:59:15;;;;;;;5.13;2.90;;;20.00;99.90;;;;;;5042142;28;20426;-75
2023/05/01 10:01:45;;;;;;;4.70;2.92;;;20.00;99.90;;;;;;5024897;28;20444;-75
2023/05/01 10:04:12;;;;;;;5.25;2.95;;;20.10;99.90;;;;;;4955882;28;20442;-74
2023/05/01 10:06:39;;;;;;;4.50;2.88;;;20.20;99.90;;;;;;4964641;28;20771;-75
2023/05/01 10:09:15;;;;;;;4.75;3.03;;;20.30;99.90;;;;;;4959664;28;20419;-75
2023/05/01 10:11:54;;;;;;;5.57;3.03;;;20.40;99.90;;;;;;4978924;28;20523;-75
2023/05/01 10:14:22;;;;;;;4.85;2.72;;;20.60;99.90;;;;;;4993365;28;20420;-75
2023/05/01 10:16:51;;;;;;;5.95;2.72;;;20.50;99.90;;;;;;4964400;28;20416;-75
2023/05/01 10:19:17;;;;;;;4.93;2.88;;;20.60;99.90;;;;;;4969035;28;21017;-75
2023/05/01 10:21:44;;;;;;;4.75;2.90;;;20.50;99.90;;;;;;4963282;28;20913;-75
2023/05/01 10:24:11;;;;;;;5.83;3.10;;;20.50;99.90;;;;;;4959775;28;20411;-75
2023/05/01 10:26:37;;;;;;;4.95;3.05;;;20.60;99.90;;;;;;4961323;28;20424;-75
2023/05/01 10:29:04;;;;;;;4.47;3.17;;;20.70;99.90;;;;;;5000291;28;20424;-75
2023/05/01 10:31:31;;;;;;;8.23;3.13;;;20.50;99.90;;;;;;4963857;28;20423;-74
2023/05/01 10:34:02;;;;;;;6.20;3.10;;;20.50;99.90;;;;;;4960931;28;20785;-75
2023/05/01 10:36:38;;;;;;;5.03;3.20;;;20.50;99.90;;;;;;4967118;28;20420;-74
2023/05/01 10:39:06;;;;;;;6.30;3.20;;;20.60;99.90;;;;;;4957586;28;20501;-75
2023/05/01 10:41:56;;;;;;;5.80;3.40;;;20.50;99.90;;;;;;4970229;28;20444;-75
2023/05/01 10:44:27;;;;;;;6.20;3.10;;;20.60;99.90;;;;;;4983404;28;20560;-74
2023/05/01 10:46:54;;;;;;;5.87;3.30;;;20.70;99.90;;;;;;4994496;28;20411;-75
2023/05/01 10:49:21;;;;;;;6.65;3.22;;;20.50;99.90;;;;;;4966971;28;20530;-75
2023/05/01 10:52:05;;;;;;;5.50;3.00;;;20.40;99.90;;;;;;4963635;28;20452;-75
2023/05/01 10:54:31;;;;;;;6.70;3.10;;;20.30;99.90;;;;;;4960316;28;20457;-75
2023/05/01 10:57:02;;;;;;;5.43;3.10;;;20.20;99.90;;;;;;5052256;28;20826;-75
2023/05/01 10:59:58;;;;;;;5.82;3.30;;;20.30;99.90;;;;;;4974276;28;20774;-75
2023/05/01 11:02:24;;;;;;;6.78;3.22;;;20.10;99.90;;;;;;4956301;28;20422;-74
2023/05/01 11:04:52;;;;;;;4.63;3.05;;;20.20;99.90;;;;;;4963393;28;20514;-74
2023/05/01 11:07:21;;;;;;;5.67;3.40;;;20.20;99.90;;;;;;4959718;28;20413;-75
2023/05/01 11:09:59;;;;;;;6.50;3.30;;;20.20;99.90;;;;;;5048873;28;20416;-75
2023/05/01 11:12:47;;;;;;;8.57;3.40;;;20.30;99.90;;;;;;4984406;28;21114;-75
2023/05/01 11:15:31;;;;;;;7.28;3.53;;;20.30;99.90;;;;;;4963950;28;20420;-74
2023/05/01 11:18:05;;;;;;;6.30;3.47;;;20.30;99.90;;;;;;4962375;28;20432;-75
2023/05/01 11:20:37;;;;;;;6.30;3.35;;;20.30;99.90;;;;;;4966950;28;20958;-75
2023/05/01 11:23:03;;;;;;;4.55;3.13;;;20.30;99.90;;;;;;4977552;28;20412;-74
2023/05/01 11:25:30;;;;;;;5.68;3.33;;;20.20;99.90;;;;;;4992597;28;20422;-75
2023/05/01 11:28:02;;;;;;;4.82;3.42;;;20.20;99.90;;;;;;4957627;28;20503;-75
2023/05/01 11:30:39;;;;;;;7.35;3.60;;;20.20;99.90;;;;;;4993243;28;20492;-75
2023/05/01 11:33:06;;;;;;;7.88;3.70;;;20.20;99.90;;;;;;4964017;28;20906;-75
2023/05/01 11:35:32;;;;;;;6.85;3.13;;;20.30;99.90;;;;;;4990608;28;20427;-75
2023/05/01 11:38:01;;;;;;;5.57;3.40;;;20.40;99.90;;;;;;4960616;28;20438;-75
2023/05/01 11:40:30;;;;;;;5.90;3.40;;;20.30;99.90;;;;;;4993255;28;20419;-75
2023/05/01 11:43:05;;;;;;;7.10;3.50;;;20.30;99.90;;;;;;4977425;28;20497;-75
2023/05/01 11:45:34;;;;;;;7.80;3.78;;;20.30;99.90;;;;;;4963120;28;20412;-75
2023/05/01 11:48:01;;;;;;;7.18;3.75;;;20.30;99.90;;;;;;5047531;28;20412;-75
2023/05/01 11:50:35;;;;;;;6.90;3.60;;;20.40;99.90;;;;;;4980097;28;20428;-75
2023/05/01 11:53:03;;;;;;;4.72;3.40;;;20.30;99.90;;;;;;4958593;28;20845;-75
2023/05/01 11:55:34;;;;;;;6.82;3.70;;;20.30;99.90;;;;;;4962258;28;20420;-75
2023/05/01 11:58:03;;;;;;;10.17;3.70;;;20.30;99.90;;;;;;4937406;28;20941;-75
2023/05/01 12:00:38;;;;;;;8.23;3.57;;;20.30;99.90;;;;;;4992809;28;20417;-75
2023/05/01 12:03:10;;;;;;;6.30;3.70;;;20.40;99.90;;;;;;4959897;28;20910;-75
2023/05/01 12:05:41;;;;;;;6.15;3.80;;;20.30;99.90;;;;;;4962006;28;20412;-75
2023/05/01 12:08:19;;;;;;;6.05;3.67;;;20.30;99.90;;;;;;4963797;28;20445;-75
2023/05/01 12:10:50;;;;;;;5.75;3.45;;;20.30;99.90;;;;;;4993080;28;20479;-74
2023/05/01 12:13:18;;;;;;;5.80;3.50;;;20.40;99.90;;;;;;4958147;28;20461;-75
2023/05/01 12:15:49;;;;;;;5.63;3.30;;;20.30;99.90;;;;;;4987157;28;20435;-74
2023/05/01 12:18:17;;;;;;;5.03;3.30;;;20.30;99.90;;;;;;4963741;28;20422;-75
2023/05/01 12:20:53;;;;;;;5.38;3.38;;;20.30;99.90;;;;;;4959824;28;20410;-75
2023/05/01 12:23:38;;;;;;;6.60;3.25;;;20.30;99.90;;;;;;4968784;28;20420;-75
2023/05/01 12:26:24;;;;;;;7.07;3.47;;;20.30;99.90;;;;;;4974586;28;20922;-75
2023/05/01 12:28:59;;;;;;;6.32;3.70;;;20.30;99.90;;;;;;4959519;28;20463;-75
2023/05/01 12:31:26;;;;;;;6.25;3.25;;;20.20;99.90;;;;;;4962489;28;20998;-75
2023/05/01 12:34:05;;;;;;;5.45;3.08;;;20.30;99.90;;;;;;4959137;28;20513;-74
2023/05/01 12:36:34;;;;;;;5.38;3.13;;;20.40;99.90;;;;;;4959682;28;20915;-74
2023/05/01 12:39:10;;;;;;;7.83;3.00;;;20.40;99.90;;;;;;4965913;28;20438;-75
2023/05/01 12:41:45;;;;;;;8.77;3.30;;;20.40;99.90;;;;;;5014321;28;20399;-74
2023/05/01 12:44:29;;;;;;;5.85;3.40;;;20.40;99.90;;;;;;4954594;28;20504;-75
2023/05/01 12:47:00;;;;;;;6.32;3.10;;;20.40;99.90;;;;;;4960279;28;20408;-75
2023/05/01 12:49:28;;;;;;;6.15;3.25;;;20.40;99.90;;;;;;4964302;28;20935;-75
2023/05/01 12:51:58;;;;;;;4.97;3.05;;;20.40;99.90;;;;;;5048066;28;20510;-75
2023/05/01 12:54:36;;;;;;;4.93;3.10;;;20.30;99.90;;;;;;4965694;28;20451;-75
2023/05/01 12:57:13;;;;;;;4.90;2.90;;;20.30;99.90;;;;;;4975963;28;20416;-75
2023/05/01 12:59:42;;;;;;;5.30;3.30;;;20.20;99.90;;;;;;4966253;28;20922;-75